Time,TemperatureF,DewpointF,PressureIn,WindDirection,WindDirectionDegrees,WindSpeedMPH,WindSpeedGustMPH,Humidity,HourlyPrecipIn,Conditions,Clouds,dailyrainin,SoftwareType,DateUTC
2017-09-20 00:05:00,44.8,44.0,29.83,SW,225,15.0,-999.0,98,0.00,,,0.00,,2017-09-20 07:05:00,
2017-09-20 00:10:00,44.8,44.0,29.83,SW,225,4.0,18.0,98,0.00,,,0.00,,2017-09-20 07:10:00,
2017-09-20 00:16:00,44.8,44.0,29.82,WNW,293,11.0,22.0,98,0.00,,,0.00,,2017-09-20 07:16:00,
2017-09-20 00:21:00,45.0,44.0,29.82,West,270,16.0,-999.0,98,0.00,,,0.00,,2017-09-20 07:21:00,
2017-09-20 00:26:00,45.0,44.0,29.83,WSW,248,16.0,-999.0,98,0.00,,,0.00,,2017-09-20 07:26:00,
2017-09-20 00:32:00,45.0,44.0,29.82,West,270,15.0,-999.0,98,0.00,,,0.00,,2017-09-20 07:32:00,
2017-09-20 00:37:00,45.2,45.0,29.81,WSW,248,22.0,35.0,98,0.32,,,0.32,,2017-09-20 07:37:00,
2017-09-20 00:42:00,45.2,45.0,29.82,SW,225,21.0,35.0,98,0.37,,,0.37,,2017-09-20 07:42:00,
2017-09-20 00:48:00,45.0,44.0,29.82,West,270,19.0,-999.0,98,0.37,,,0.37,,2017-09-20 07:48:00,
2017-09-20 00:53:00,45.0,44.0,29.81,SW,225,17.0,27.0,98,0.42,,,0.42,,2017-09-20 07:53:00,
2017-09-20 00:59:00,45.2,45.0,29.82,SW,225,12.0,26.0,98,0.42,,,0.42,,2017-09-20 07:59:00,
2017-09-20 01:04:00,45.5,44.0,29.81,West,270,25.0,-999.0,98,0.12,,,0.54,,2017-09-20 08:04:00,
2017-09-20 01:10:00,45.9,45.0,29.81,West,270,23.0,-999.0,98,0.23,,,0.65,,2017-09-20 08:10:00,
2017-09-20 01:15:00,45.9,45.0,29.81,West,270,15.0,32.0,96,0.24,,,0.66,,2017-09-20 08:15:00,
2017-09-20 01:21:00,46.1,45.0,29.80,West,270,23.0,-999.0,96,0.33,,,0.75,,2017-09-20 08:21:00,
2017-09-20 01:26:00,45.9,45.0,29.81,WSW,248,16.0,30.0,96,0.39,,,0.81,,2017-09-20 08:26:00,
2017-09-20 01:32:00,45.7,45.0,29.81,SSW,203,20.0,-999.0,98,0.39,,,0.81,,2017-09-20 08:32:00,
2017-09-20 01:37:00,45.9,45.0,29.82,WSW,248,10.0,23.0,98,0.39,,,0.81,,2017-09-20 08:37:00,
2017-09-20 01:43:00,45.7,45.0,29.82,West,270,16.0,-999.0,98,0.39,,,0.81,,2017-09-20 08:43:00,
2017-09-20 01:48:00,45.9,45.0,29.81,West,270,20.0,-999.0,98,0.39,,,0.81,,2017-09-20 08:48:00,
2017-09-20 01:54:00,45.7,45.0,29.81,West,270,25.0,-999.0,98,0.43,,,0.85,,2017-09-20 08:54:00,
2017-09-20 01:59:00,45.7,45.0,29.81,SW,225,20.0,-999.0,98,0.43,,,0.85,,2017-09-20 08:59:00,
2017-09-20 02:05:00,45.5,45.0,29.81,West,270,34.0,-999.0,98,0.31,,,1.16,,2017-09-20 09:05:00,
2017-09-20 02:10:00,45.2,45.0,29.80,West,270,35.0,-999.0,98,0.65,,,1.50,,2017-09-20 09:10:00,
2017-09-20 02:16:00,45.2,44.0,29.80,SW,225,23.0,35.0,98,0.85,,,1.70,,2017-09-20 09:16:00,
2017-09-20 02:21:00,45.2,44.0,29.81,WSW,248,18.0,29.0,98,0.95,,,1.80,,2017-09-20 09:21:00,
2017-09-20 02:26:00,45.5,44.0,29.81,SW,225,16.0,29.0,98,0.95,,,1.80,,2017-09-20 09:26:00,
2017-09-20 02:32:00,45.2,44.0,29.80,West,270,20.0,-999.0,98,1.00,,,1.85,,2017-09-20 09:32:00,
2017-09-20 02:38:00,45.2,44.0,29.80,WSW,248,16.0,28.0,98,1.00,,,1.85,,2017-09-20 09:38:00,
2017-09-20 02:43:00,45.0,44.0,29.80,WSW,248,17.0,29.0,98,1.01,,,1.86,,2017-09-20 09:43:00,
2017-09-20 02:48:00,45.0,44.0,29.81,WSW,248,17.0,-999.0,98,1.01,,,1.86,,2017-09-20 09:48:00,
2017-09-20 02:54:00,45.2,45.0,29.80,WSW,248,16.0,-999.0,98,1.01,,,1.86,,2017-09-20 09:54:00,
2017-09-20 02:59:00,45.2,45.0,29.81,West,270,12.0,23.0,98,1.01,,,1.86,,2017-09-20 09:59:00,
2017-09-20 03:05:00,45.0,44.0,29.80,WSW,248,21.0,-999.0,98,0.00,,,1.86,,2017-09-20 10:05:00,
2017-09-20 03:10:00,45.0,44.0,29.80,West,270,9.0,25.0,98,0.00,,,1.86,,2017-09-20 10:10:00,
2017-09-20 03:16:00,45.0,44.0,29.79,West,270,20.0,-999.0,98,0.00,,,1.86,,2017-09-20 10:16:00,
2017-09-20 03:21:00,45.0,44.0,29.80,East,90,18.0,-999.0,98,0.00,,,1.86,,2017-09-20 10:21:00,
2017-09-20 03:27:00,45.0,44.0,29.79,WSW,248,15.0,27.0,98,0.02,,,1.88,,2017-09-20 10:27:00,
2017-09-20 03:32:00,45.0,44.0,29.80,West,270,16.0,-999.0,98,0.02,,,1.88,,2017-09-20 10:32:00,
2017-09-20 03:38:00,44.8,44.0,29.79,West,270,16.0,-999.0,98,0.04,,,1.90,,2017-09-20 10:38:00,
2017-09-20 03:43:00,44.8,44.0,29.79,West,270,12.0,26.0,98,0.05,,,1.91,,2017-09-20 10:43:00,
2017-09-20 03:48:00,44.6,44.0,29.79,West,270,12.0,-999.0,98,0.05,,,1.91,,2017-09-20 10:48:00,
2017-09-20 03:54:00,44.4,44.0,29.79,West,270,13.0,-999.0,98,0.05,,,1.91,,2017-09-20 10:54:00,
2017-09-20 03:59:00,44.4,44.0,29.79,SW,225,13.0,-999.0,98,0.05,,,1.91,,2017-09-20 10:59:00,
2017-09-20 04:05:00,44.4,44.0,29.79,West,270,17.0,-999.0,98,0.00,,,1.91,,2017-09-20 11:05:00,
2017-09-20 04:10:00,44.4,44.0,29.79,WSW,248,17.0,-999.0,98,0.00,,,1.91,,2017-09-20 11:10:00,
2017-09-20 04:16:00,44.4,44.0,29.79,West,270,17.0,-999.0,98,0.00,,,1.91,,2017-09-20 11:16:00,
2017-09-20 04:21:00,44.4,44.0,29.79,West,270,16.0,-999.0,98,0.00,,,1.91,,2017-09-20 11:21:00,
2017-09-20 04:27:00,44.4,44.0,29.79,West,270,17.0,-999.0,98,0.00,,,1.91,,2017-09-20 11:27:00,
2017-09-20 04:32:00,44.0,43.0,29.79,WSW,248,22.0,-999.0,98,0.00,,,1.91,,2017-09-20 11:32:00,
2017-09-20 04:38:00,43.9,43.0,29.78,SW,225,15.0,25.0,98,0.00,,,1.91,,2017-09-20 11:38:00,
2017-09-20 04:43:00,43.9,43.0,29.79,West,270,15.0,-999.0,98,0.00,,,1.91,,2017-09-20 11:43:00,
2017-09-20 04:49:00,43.9,43.0,29.78,SW,225,16.0,-999.0,98,0.00,,,1.91,,2017-09-20 11:49:00,
2017-09-20 04:54:00,43.9,43.0,29.79,WSW,248,15.0,-999.0,98,0.00,,,1.91,,2017-09-20 11:54:00,
2017-09-20 05:00:00,43.9,43.0,29.78,West,270,11.0,-999.0,98,0.00,,,1.91,,2017-09-20 12:00:00,
2017-09-20 05:05:00,43.9,43.0,29.79,WSW,248,16.0,-999.0,98,0.00,,,1.91,,2017-09-20 12:05:00,
2017-09-20 05:11:00,43.9,43.0,29.77,West,270,11.0,-999.0,98,0.00,,,1.91,,2017-09-20 12:11:00,
2017-09-20 05:16:00,43.9,43.0,29.77,NW,315,12.0,-999.0,98,0.00,,,1.91,,2017-09-20 12:16:00,
2017-09-20 05:22:00,43.9,43.0,29.77,SW,225,18.0,-999.0,98,0.00,,,1.91,,2017-09-20 12:22:00,